Barnes, Texas
Current Conditions -  °F | °C
As of 7:53 AM on Monday 24 Nov 2014 (Local Time) from KLFK Reporting Station
Clear Clear  
Wind Chill: 47°   Ceiling: Unl
Heat Index: 49°   Visibility: 10mi
Dew Point: 40°   Wind: 6mph
Humidity: 71%   Direction: 320°NW
Pressure: 29.99"   Gusts: NA
Location:  30.9227°N, 94.9311°W
Report Text: KLFK 241353Z AUTO 32005KT 10SM CLR 09/04 A2999 RMK AO2 SLP153 T00940044
Loading
Personal Weather Stations






























Interactive Weather Map New forecast layout! Learn more

10-Day Weather Forecast

Advertisements
Track Severe Weather on mobile